sensor_id;sensor_type;location;lat;lon;timestamp;temperature;humidity
33247;DHT22;19606;50.108;19.804;2023-02-15T00:01:48;2.70;99.90
33247;DHT22;19606;50.108;19.804;2023-02-15T00:04:17;3.10;99.90
33247;DHT22;19606;50.108;19.804;2023-02-15T00:06:43;3.10;99.90
33247;DHT22;19606;50.108;19.804;2023-02-15T00:09:10;3.00;99.90
33247;DHT22;19606;50.108;19.804;2023-02-15T00:11:36;2.80;99.90
33247;DHT22;19606;50.108;19.804;2023-02-15T00:14:18;3.00;99.90
33247;DHT22;19606;50.108;19.804;2023-02-15T00:16:45;3.10;99.90
33247;DHT22;19606;50.108;19.804;2023-02-15T00:19:12;3.10;99.90
33247;DHT22;19606;50.108;19.804;2023-02-15T00:21:39;3.40;99.90
33247;DHT22;19606;50.108;19.804;2023-02-15T00:24:07;3.10;99.90
33247;DHT22;19606;50.108;19.804;2023-02-15T00:26:33;2.80;99.90
33247;DHT22;19606;50.108;19.804;2023-02-15T00:28:59;3.20;99.90
33247;DHT22;19606;50.108;19.804;2023-02-15T00:31:26;3.20;99.90
33247;DHT22;19606;50.108;19.804;2023-02-15T00:33:52;3.00;99.90
33247;DHT22;19606;50.108;19.804;2023-02-15T00:36:18;2.80;99.90
33247;DHT22;19606;50.108;19.804;2023-02-15T00:38:43;3.00;99.90
33247;DHT22;19606;50.108;19.804;2023-02-15T00:41:09;3.20;99.90
33247;DHT22;19606;50.108;19.804;2023-02-15T00:43:35;3.00;99.90
33247;DHT22;19606;50.108;19.804;2023-02-15T00:46:03;3.20;99.90
33247;DHT22;19606;50.108;19.804;2023-02-15T00:48:29;3.20;99.90
33247;DHT22;19606;50.108;19.804;2023-02-15T00:50:57;2.70;99.90
33247;DHT22;19606;50.108;19.804;2023-02-15T00:53:23;3.20;99.90
33247;DHT22;19606;50.108;19.804;2023-02-15T00:55:48;3.00;99.90
33247;DHT22;19606;50.108;19.804;2023-02-15T01:20:26;2.90;99.90
33247;DHT22;19606;50.108;19.804;2023-02-15T01:22:52;3.10;99.90
33247;DHT22;19606;50.108;19.804;2023-02-15T01:25:20;3.20;99.90
33247;DHT22;19606;50.108;19.804;2023-02-15T01:27:46;3.30;99.90
33247;DHT22;19606;50.108;19.804;2023-02-15T01:30:13;2.90;99.90
33247;DHT22;19606;50.108;19.804;2023-02-15T01:32:40;2.90;99.90
33247;DHT22;19606;50.108;19.804;2023-02-15T01:35:06;3.10;99.90
33247;DHT22;19606;50.108;19.804;2023-02-15T01:37:32;2.90;99.90
33247;DHT22;19606;50.108;19.804;2023-02-15T01:39:58;2.90;99.90
33247;DHT22;19606;50.108;19.804;2023-02-15T01:42:26;2.90;99.90
33247;DHT22;19606;50.108;19.804;2023-02-15T01:45:00;4.30;99.90
33247;DHT22;19606;50.108;19.804;2023-02-15T01:47:42;2.90;99.90
33247;DHT22;19606;50.108;19.804;2023-02-15T01:50:30;2.90;99.90
33247;DHT22;19606;50.108;19.804;2023-02-15T01:56:01;2.90;99.90
33247;DHT22;19606;50.108;19.804;2023-02-15T01:58:29;3.20;99.90
33247;DHT22;19606;50.108;19.804;2023-02-15T02:00:57;2.90;99.90
33247;DHT22;19606;50.108;19.804;2023-02-15T02:06:27;2.80;99.90
33247;DHT22;19606;50.108;19.804;2023-02-15T02:08:54;3.20;99.90
33247;DHT22;19606;50.108;19.804;2023-02-15T02:11:20;2.70;99.90
33247;DHT22;19606;50.108;19.804;2023-02-15T02:13:46;3.70;99.90
33247;DHT22;19606;50.108;19.804;2023-02-15T02:16:45;3.20;99.90
33247;DHT22;19606;50.108;19.804;2023-02-15T02:25:20;2.90;99.90
33247;DHT22;19606;50.108;19.804;2023-02-15T02:38:45;2.80;99.90
33247;DHT22;19606;50.108;19.804;2023-02-15T02:44:18;2.70;99.90
33247;DHT22;19606;50.108;19.804;2023-02-15T02:47:08;2.80;99.90
33247;DHT22;19606;50.108;19.804;2023-02-15T02:49:40;2.70;99.90
33247;DHT22;19606;50.108;19.804;2023-02-15T02:52:35;2.70;99.90
33247;DHT22;19606;50.108;19.804;2023-02-15T02:55:05;2.70;99.90
33247;DHT22;19606;50.108;19.804;2023-02-15T02:57:32;2.70;99.90
33247;DHT22;19606;50.108;19.804;2023-02-15T03:00:02;3.30;99.90
33247;DHT22;19606;50.108;19.804;2023-02-15T03:02:32;2.70;99.90
33247;DHT22;19606;50.108;19.804;2023-02-15T03:05:03;4.20;99.90
33247;DHT22;19606;50.108;19.804;2023-02-15T03:07:32;2.70;99.90
33247;DHT22;19606;50.108;19.804;2023-02-15T03:10:02;3.00;99.90
33247;DHT22;19606;50.108;19.804;2023-02-15T03:12:32;3.60;99.90
33247;DHT22;19606;50.108;19.804;2023-02-15T03:15:05;2.80;99.90
33247;DHT22;19606;50.108;19.804;2023-02-15T03:17:33;2.70;99.90
33247;DHT22;19606;50.108;19.804;2023-02-15T03:20:07;2.90;99.90
33247;DHT22;19606;50.108;19.804;2023-02-15T03:22:59;3.00;99.90
33247;DHT22;19606;50.108;19.804;2023-02-15T03:25:36;2.80;99.90
33247;DHT22;19606;50.108;19.804;2023-02-15T03:28:06;2.80;99.90
33247;DHT22;19606;50.108;19.804;2023-02-15T03:30:35;2.90;99.90
33247;DHT22;19606;50.108;19.804;2023-02-15T03:33:03;3.00;99.90
33247;DHT22;19606;50.108;19.804;2023-02-15T03:36:09;2.60;99.90
33247;DHT22;19606;50.108;19.804;2023-02-15T03:38:51;2.60;99.90
33247;DHT22;19606;50.108;19.804;2023-02-15T03:41:19;2.60;99.90
33247;DHT22;19606;50.108;19.804;2023-02-15T03:43:57;2.80;99.90
33247;DHT22;19606;50.108;19.804;2023-02-15T03:46:47;2.90;99.90
33247;DHT22;19606;50.108;19.804;2023-02-15T03:49:25;2.70;99.90
33247;DHT22;19606;50.108;19.804;2023-02-15T03:51:54;2.60;99.90
33247;DHT22;19606;50.108;19.804;2023-02-15T03:54:27;2.60;99.90
33247;DHT22;19606;50.108;19.804;2023-02-15T03:57:28;2.60;99.90
33247;DHT22;19606;50.108;19.804;2023-02-15T04:00:22;2.60;99.90
33247;DHT22;19606;50.108;19.804;2023-02-15T04:05:42;2.60;99.90
33247;DHT22;19606;50.108;19.804;2023-02-15T04:08:09;2.70;99.90
33247;DHT22;19606;50.108;19.804;2023-02-15T04:10:34;3.40;99.90
33247;DHT22;19606;50.108;19.804;2023-02-15T04:13:23;2.50;99.90
33247;DHT22;19606;50.108;19.804;2023-02-15T04:15:50;2.90;99.90
33247;DHT22;19606;50.108;19.804;2023-02-15T04:21:14;3.10;99.90
33247;DHT22;19606;50.108;19.804;2023-02-15T04:23:58;2.60;99.90
33247;DHT22;19606;50.108;19.804;2023-02-15T04:26:43;2.80;99.90
33247;DHT22;19606;50.108;19.804;2023-02-15T04:29:08;2.50;99.90
33247;DHT22;19606;50.108;19.804;2023-02-15T04:31:34;2.60;99.90
33247;DHT22;19606;50.108;19.804;2023-02-15T04:33:59;2.60;99.90
33247;DHT22;19606;50.108;19.804;2023-02-15T04:36:25;2.50;99.90
33247;DHT22;19606;50.108;19.804;2023-02-15T04:38:51;3.60;99.90
33247;DHT22;19606;50.108;19.804;2023-02-15T04:41:16;2.60;99.90
33247;DHT22;19606;50.108;19.804;2023-02-15T04:43:42;2.60;99.90
33247;DHT22;19606;50.108;19.804;2023-02-15T04:46:08;2.90;99.90
33247;DHT22;19606;50.108;19.804;2023-02-15T04:48:33;3.40;99.90
33247;DHT22;19606;50.108;19.804;2023-02-15T04:50:59;2.90;99.90
33247;DHT22;19606;50.108;19.804;2023-02-15T04:53:25;2.60;99.90
33247;DHT22;19606;50.108;19.804;2023-02-15T04:55:50;2.60;99.90
33247;DHT22;19606;50.108;19.804;2023-02-15T04:58:16;2.70;99.90
33247;DHT22;19606;50.108;19.804;2023-02-15T05:00:41;3.10;99.90
33247;DHT22;19606;50.108;19.804;2023-02-15T05:03:07;2.60;99.90
33247;DHT22;19606;50.108;19.804;2023-02-15T05:05:33;2.70;99.90
33247;DHT22;19606;50.108;19.804;2023-02-15T05:07:58;2.90;99.90
33247;DHT22;19606;50.108;19.804;2023-02-15T05:10:24;2.50;99.90
33247;DHT22;19606;50.108;19.804;2023-02-15T05:12:49;2.50;99.90
33247;DHT22;19606;50.108;19.804;2023-02-15T05:15:15;2.50;99.90
33247;DHT22;19606;50.108;19.804;2023-02-15T05:17:41;2.60;99.90
33247;DHT22;19606;50.108;19.804;2023-02-15T05:20:07;2.60;99.90
33247;DHT22;19606;50.108;19.804;2023-02-15T05:22:33;2.50;99.90
33247;DHT22;19606;50.108;19.804;2023-02-15T05:24:58;3.10;99.90
33247;DHT22;19606;50.108;19.804;2023-02-15T05:27:42;2.90;99.90
33247;DHT22;19606;50.108;19.804;2023-02-15T05:30:26;2.60;99.90
33247;DHT22;19606;50.108;19.804;2023-02-15T05:32:52;2.50;99.90
33247;DHT22;19606;50.108;19.804;2023-02-15T05:35:18;2.60;99.90
33247;DHT22;19606;50.108;19.804;2023-02-15T05:37:43;3.00;99.90
33247;DHT22;19606;50.108;19.804;2023-02-15T05:40:09;2.40;99.90
33247;DHT22;19606;50.108;19.804;2023-02-15T05:42:35;2.50;99.90
33247;DHT22;19606;50.108;19.804;2023-02-15T05:45:01;2.60;99.90
33247;DHT22;19606;50.108;19.804;2023-02-15T05:47:26;2.90;99.90
33247;DHT22;19606;50.108;19.804;2023-02-15T05:49:52;2.30;99.90
33247;DHT22;19606;50.108;19.804;2023-02-15T05:52:18;2.60;99.90
33247;DHT22;19606;50.108;19.804;2023-02-15T05:54:43;2.40;99.90
33247;DHT22;19606;50.108;19.804;2023-02-15T05:57:09;3.30;99.90
33247;DHT22;19606;50.108;19.804;2023-02-15T05:59:34;3.40;99.90
33247;DHT22;19606;50.108;19.804;2023-02-15T06:02:00;2.50;99.90
33247;DHT22;19606;50.108;19.804;2023-02-15T06:04:26;2.90;99.90
33247;DHT22;19606;50.108;19.804;2023-02-15T06:06:51;2.40;99.90
33247;DHT22;19606;50.108;19.804;2023-02-15T06:09:17;2.30;99.90
33247;DHT22;19606;50.108;19.804;2023-02-15T06:11:45;2.40;99.90
33247;DHT22;19606;50.108;19.804;2023-02-15T06:14:11;2.90;99.90
33247;DHT22;19606;50.108;19.804;2023-02-15T06:16:37;3.00;99.90
33247;DHT22;19606;50.108;19.804;2023-02-15T06:21:30;2.40;99.90
33247;DHT22;19606;50.108;19.804;2023-02-15T06:23:56;3.10;99.90
33247;DHT22;19606;50.108;19.804;2023-02-15T06:26:21;3.60;99.90
33247;DHT22;19606;50.108;19.804;2023-02-15T06:28:47;3.60;99.90
33247;DHT22;19606;50.108;19.804;2023-02-15T06:31:13;2.40;99.90
33247;DHT22;19606;50.108;19.804;2023-02-15T06:33:38;2.50;99.90
33247;DHT22;19606;50.108;19.804;2023-02-15T06:36:04;2.90;99.90
33247;DHT22;19606;50.108;19.804;2023-02-15T06:38:30;2.40;99.90
33247;DHT22;19606;50.108;19.804;2023-02-15T06:40:56;2.80;99.90
33247;DHT22;19606;50.108;19.804;2023-02-15T06:45:47;2.70;99.90
33247;DHT22;19606;50.108;19.804;2023-02-15T06:48:13;3.80;99.90
33247;DHT22;19606;50.108;19.804;2023-02-15T06:50:39;2.80;99.90
33247;DHT22;19606;50.108;19.804;2023-02-15T06:53:04;2.70;99.90
33247;DHT22;19606;50.108;19.804;2023-02-15T06:55:30;2.70;99.90
33247;DHT22;19606;50.108;19.804;2023-02-15T06:57:56;3.30;99.90
33247;DHT22;19606;50.108;19.804;2023-02-15T07:00:21;2.90;99.90
33247;DHT22;19606;50.108;19.804;2023-02-15T07:02:54;2.70;99.90
33247;DHT22;19606;50.108;19.804;2023-02-15T07:05:24;2.70;99.90
33247;DHT22;19606;50.108;19.804;2023-02-15T07:07:50;2.80;99.90
33247;DHT22;19606;50.108;19.804;2023-02-15T07:10:16;2.80;99.90
33247;DHT22;19606;50.108;19.804;2023-02-15T07:15:09;2.90;99.90
33247;DHT22;19606;50.108;19.804;2023-02-15T07:17:38;3.10;99.90
33247;DHT22;19606;50.108;19.804;2023-02-15T07:20:06;2.90;99.90
33247;DHT22;19606;50.108;19.804;2023-02-15T07:22:33;3.10;99.90
33247;DHT22;19606;50.108;19.804;2023-02-15T07:24:59;3.60;99.90
33247;DHT22;19606;50.108;19.804;2023-02-15T07:27:25;3.50;99.90
33247;DHT22;19606;50.108;19.804;2023-02-15T07:29:50;3.30;99.90
33247;DHT22;19606;50.108;19.804;2023-02-15T07:32:16;3.50;99.90
33247;DHT22;19606;50.108;19.804;2023-02-15T07:34:41;3.20;99.90
33247;DHT22;19606;50.108;19.804;2023-02-15T07:37:07;3.30;99.90
33247;DHT22;19606;50.108;19.804;2023-02-15T07:39:33;3.30;99.90
33247;DHT22;19606;50.108;19.804;2023-02-15T07:42:00;3.30;99.90
33247;DHT22;19606;50.108;19.804;2023-02-15T07:44:25;3.40;99.90
33247;DHT22;19606;50.108;19.804;2023-02-15T07:46:51;3.50;99.90
33247;DHT22;19606;50.108;19.804;2023-02-15T07:49:17;4.10;99.90
33247;DHT22;19606;50.108;19.804;2023-02-15T07:51:42;3.60;99.90
33247;DHT22;19606;50.108;19.804;2023-02-15T07:54:08;3.30;99.90
33247;DHT22;19606;50.108;19.804;2023-02-15T07:56:36;3.80;99.90
33247;DHT22;19606;50.108;19.804;2023-02-15T07:59:01;3.60;99.90
33247;DHT22;19606;50.108;19.804;2023-02-15T08:01:34;3.50;99.90
33247;DHT22;19606;50.108;19.804;2023-02-15T08:04:01;4.10;99.90
33247;DHT22;19606;50.108;19.804;2023-02-15T08:06:30;3.80;99.90
33247;DHT22;19606;50.108;19.804;2023-02-15T08:08:56;3.70;89.60
33247;DHT22;19606;50.108;19.804;2023-02-15T08:13:56;4.00;81.10
33247;DHT22;19606;50.108;19.804;2023-02-15T08:16:47;4.00;99.90
33247;DHT22;19606;50.108;19.804;2023-02-15T08:19:18;4.00;80.80
33247;DHT22;19606;50.108;19.804;2023-02-15T08:21:53;4.60;92.30
33247;DHT22;19606;50.108;19.804;2023-02-15T08:24:21;4.10;64.10
33247;DHT22;19606;50.108;19.804;2023-02-15T08:26:48;4.20;54.60
33247;DHT22;19606;50.108;19.804;2023-02-15T08:29:14;4.30;35.20
33247;DHT22;19606;50.108;19.804;2023-02-15T08:31:41;4.60;31.50
33247;DHT22;19606;50.108;19.804;2023-02-15T08:34:07;4.30;1.00
33247;DHT22;19606;50.108;19.804;2023-02-15T08:36:34;5.10;20.00
33247;DHT22;19606;50.108;19.804;2023-02-15T08:39:02;4.80;8.70
33247;DHT22;19606;50.108;19.804;2023-02-15T08:41:30;4.80;1.00
33247;DHT22;19606;50.108;19.804;2023-02-15T08:43:59;4.60;1.00
33247;DHT22;19606;50.108;19.804;2023-02-15T08:46:28;5.00;1.00
33247;DHT22;19606;50.108;19.804;2023-02-15T08:48:54;4.70;1.00
33247;DHT22;19606;50.108;19.804;2023-02-15T08:51:22;5.40;1.00
33247;DHT22;19606;50.108;19.804;2023-02-15T08:53:50;4.80;12.20
33247;DHT22;19606;50.108;19.804;2023-02-15T08:56:21;5.40;1.00
33247;DHT22;19606;50.108;19.804;2023-02-15T08:58:47;5.30;1.00
33247;DHT22;19606;50.108;19.804;2023-02-15T09:01:18;5.10;1.00
33247;DHT22;19606;50.108;19.804;2023-02-15T09:03:47;5.10;1.00
33247;DHT22;19606;50.108;19.804;2023-02-15T09:06:13;5.40;1.00
33247;DHT22;19606;50.108;19.804;2023-02-15T09:08:41;6.20;1.00
33247;DHT22;19606;50.108;19.804;2023-02-15T09:13:35;7.40;1.00
33247;DHT22;19606;50.108;19.804;2023-02-15T09:16:04;9.50;1.00
33247;DHT22;19606;50.108;19.804;2023-02-15T09:18:32;8.90;99.90
33247;DHT22;19606;50.108;19.804;2023-02-15T09:21:08;7.20;99.90
33247;DHT22;19606;50.108;19.804;2023-02-15T09:23:34;7.10;1.00
33247;DHT22;19606;50.108;19.804;2023-02-15T09:26:07;7.30;99.90
33247;DHT22;19606;50.108;19.804;2023-02-15T09:28:33;7.50;1.00
33247;DHT22;19606;50.108;19.804;2023-02-15T09:31:13;8.30;82.70
33247;DHT22;19606;50.108;19.804;2023-02-15T09:33:41;9.70;99.90
33247;DHT22;19606;50.108;19.804;2023-02-15T09:36:16;10.40;1.00
33247;DHT22;19606;50.108;19.804;2023-02-15T09:38:41;12.50;12.30
33247;DHT22;19606;50.108;19.804;2023-02-15T09:44:17;13.00;1.00
33247;DHT22;19606;50.108;19.804;2023-02-15T10:04:44;14.40;1.00
33247;DHT22;19606;50.108;19.804;2023-02-15T10:06:48;11.40;1.00
33247;DHT22;19606;50.108;19.804;2023-02-15T10:22:58;13.50;1.00
33247;DHT22;19606;50.108;19.804;2023-02-15T10:28:05;13.60;1.00
33247;DHT22;19606;50.108;19.804;2023-02-15T10:30:36;14.60;1.00
33247;DHT22;19606;50.108;19.804;2023-02-15T10:33:14;15.10;1.00
33247;DHT22;19606;50.108;19.804;2023-02-15T10:35:50;14.80;1.00
33247;DHT22;19606;50.108;19.804;2023-02-15T10:38:42;12.70;1.00
33247;DHT22;19606;50.108;19.804;2023-02-15T10:55:31;14.90;1.00
33247;DHT22;19606;50.108;19.804;2023-02-15T11:00:44;15.80;1.00
33247;DHT22;19606;50.108;19.804;2023-02-15T11:03:25;16.70;1.00
33247;DHT22;19606;50.108;19.804;2023-02-15T11:08:30;16.90;1.00
33247;DHT22;19606;50.108;19.804;2023-02-15T11:13:31;16.20;1.00
33247;DHT22;19606;50.108;19.804;2023-02-15T11:16:05;16.10;1.00
33247;DHT22;19606;50.108;19.804;2023-02-15T11:18:39;16.40;1.00
33247;DHT22;19606;50.108;19.804;2023-02-15T11:21:26;15.20;1.00
33247;DHT22;19606;50.108;19.804;2023-02-15T11:23:53;15.90;1.00
33247;DHT22;19606;50.108;19.804;2023-02-15T11:26:34;17.10;1.00
33247;DHT22;19606;50.108;19.804;2023-02-15T11:31:55;16.60;1.00
33247;DHT22;19606;50.108;19.804;2023-02-15T11:36:55;16.90;1.00
33247;DHT22;19606;50.108;19.804;2023-02-15T11:39:23;17.10;1.00
33247;DHT22;19606;50.108;19.804;2023-02-15T11:41:55;17.40;1.00
33247;DHT22;19606;50.108;19.804;2023-02-15T11:44:26;18.10;1.00
33247;DHT22;19606;50.108;19.804;2023-02-15T11:46:53;16.50;1.00
33247;DHT22;19606;50.108;19.804;2023-02-15T11:51:51;17.50;1.00
33247;DHT22;19606;50.108;19.804;2023-02-15T11:54:26;17.30;1.00
33247;DHT22;19606;50.108;19.804;2023-02-15T11:56:58;18.20;1.00
33247;DHT22;19606;50.108;19.804;2023-02-15T11:59:32;18.30;1.00
33247;DHT22;19606;50.108;19.804;2023-02-15T12:01:58;18.00;1.00
33247;DHT22;19606;50.108;19.804;2023-02-15T12:04:30;17.90;1.00
33247;DHT22;19606;50.108;19.804;2023-02-15T12:07:34;18.00;1.00
33247;DHT22;19606;50.108;19.804;2023-02-15T12:12:45;17.90;1.00
33247;DHT22;19606;50.108;19.804;2023-02-15T12:15:12;18.90;1.00
33247;DHT22;19606;50.108;19.804;2023-02-15T12:17:39;18.70;1.00
33247;DHT22;19606;50.108;19.804;2023-02-15T12:23:03;18.60;1.00
33247;DHT22;19606;50.108;19.804;2023-02-15T12:25:36;18.80;1.00
33247;DHT22;19606;50.108;19.804;2023-02-15T12:28:05;19.10;1.00
33247;DHT22;19606;50.108;19.804;2023-02-15T12:30:42;19.30;1.00
33247;DHT22;19606;50.108;19.804;2023-02-15T12:35:40;19.50;1.00
33247;DHT22;19606;50.108;19.804;2023-02-15T12:40:33;19.00;1.00
33247;DHT22;19606;50.108;19.804;2023-02-15T12:43:01;19.50;1.00
33247;DHT22;19606;50.108;19.804;2023-02-15T12:45:35;19.30;1.00
33247;DHT22;19606;50.108;19.804;2023-02-15T12:48:21;19.20;1.00
33247;DHT22;19606;50.108;19.804;2023-02-15T12:50:49;18.80;1.00
33247;DHT22;19606;50.108;19.804;2023-02-15T12:53:22;18.60;1.00
33247;DHT22;19606;50.108;19.804;2023-02-15T12:58:22;19.50;1.00
33247;DHT22;19606;50.108;19.804;2023-02-15T13:01:19;19.60;1.00
33247;DHT22;19606;50.108;19.804;2023-02-15T13:03:59;20.30;1.00
33247;DHT22;19606;50.108;19.804;2023-02-15T13:06:27;20.40;1.00
33247;DHT22;19606;50.108;19.804;2023-02-15T13:09:16;19.90;1.00
33247;DHT22;19606;50.108;19.804;2023-02-15T13:11:44;19.60;1.00
33247;DHT22;19606;50.108;19.804;2023-02-15T13:14:21;19.70;1.00
33247;DHT22;19606;50.108;19.804;2023-02-15T13:16:51;19.60;1.00
33247;DHT22;19606;50.108;19.804;2023-02-15T13:19:51;19.30;1.00
33247;DHT22;19606;50.108;19.804;2023-02-15T13:22:21;19.10;1.00
33247;DHT22;19606;50.108;19.804;2023-02-15T13:24:55;19.20;1.00
33247;DHT22;19606;50.108;19.804;2023-02-15T13:27:26;19.50;1.00
33247;DHT22;19606;50.108;19.804;2023-02-15T13:29:56;19.50;1.00
33247;DHT22;19606;50.108;19.804;2023-02-15T13:32:48;19.80;1.00
33247;DHT22;19606;50.108;19.804;2023-02-15T13:35:18;19.10;99.90
33247;DHT22;19606;50.108;19.804;2023-02-15T13:38:06;19.30;1.00
33247;DHT22;19606;50.108;19.804;2023-02-15T13:43:45;19.40;1.00
33247;DHT22;19606;50.108;19.804;2023-02-15T13:57:26;18.90;99.90
33247;DHT22;19606;50.108;19.804;2023-02-15T14:11:18;18.10;1.00
33247;DHT22;19606;50.108;19.804;2023-02-15T14:16:54;15.10;1.00
33247;DHT22;19606;50.108;19.804;2023-02-15T14:25:42;16.00;1.00
33247;DHT22;19606;50.108;19.804;2023-02-15T14:31:04;13.80;1.00
33247;DHT22;19606;50.108;19.804;2023-02-15T14:33:38;12.00;1.00
33247;DHT22;19606;50.108;19.804;2023-02-15T14:36:15;10.80;1.00
33247;DHT22;19606;50.108;19.804;2023-02-15T14:41:58;9.80;1.00
33247;DHT22;19606;50.108;19.804;2023-02-15T14:44:48;9.60;1.00
33247;DHT22;19606;50.108;19.804;2023-02-15T14:47:19;9.40;99.90
33247;DHT22;19606;50.108;19.804;2023-02-15T14:49:47;9.10;1.00
33247;DHT22;19606;50.108;19.804;2023-02-15T14:52:13;8.90;1.00
33247;DHT22;19606;50.108;19.804;2023-02-15T15:10:51;7.80;1.00
33247;DHT22;19606;50.108;19.804;2023-02-15T15:12:57;7.60;1.00
33247;DHT22;19606;50.108;19.804;2023-02-15T15:17:58;7.50;1.00
33247;DHT22;19606;50.108;19.804;2023-02-15T15:49:58;5.30;1.00
33247;DHT22;19606;50.108;19.804;2023-02-15T15:52:25;5.50;22.50
33247;DHT22;19606;50.108;19.804;2023-02-15T15:55:04;5.40;15.10
33247;DHT22;19606;50.108;19.804;2023-02-15T15:57:42;4.90;35.30
33247;DHT22;19606;50.108;19.804;2023-02-15T16:00:43;5.00;76.70
33247;DHT22;19606;50.108;19.804;2023-02-15T16:03:22;4.60;99.90
33247;DHT22;19606;50.108;19.804;2023-02-15T16:05:49;4.60;99.00
33247;DHT22;19606;50.108;19.804;2023-02-15T16:08:33;4.50;99.90
33247;DHT22;19606;50.108;19.804;2023-02-15T16:11:02;4.10;99.90
33247;DHT22;19606;50.108;19.804;2023-02-15T16:13:33;3.90;99.90
33247;DHT22;19606;50.108;19.804;2023-02-15T16:15:59;3.80;99.90
33247;DHT22;19606;50.108;19.804;2023-02-15T16:18:26;3.80;99.90
33247;DHT22;19606;50.108;19.804;2023-02-15T16:20:58;3.80;99.90
33247;DHT22;19606;50.108;19.804;2023-02-15T16:23:48;3.90;99.90
33247;DHT22;19606;50.108;19.804;2023-02-15T16:28:51;3.40;99.90
